Airfield :
LOGIN :

Register | Disclaimer

   EN    FR    IT 

 










Legend :    VFR   Marginal VFR   IFR   Intensive IFR   Very Intensive IFR
Visi :
Ceiling :
>= 8 km
>= 3000ft
5 to 8 km
1000 to 3000 ft
1500m to 5 km
500 to 1000 ft
800 to 1500m
200 to 500 ft
< 800m
< 200 ft
Symbols :   Thunderstorms  Fog  Heavy snow  Heavy precipitations  Wind > 20 kt
SIGMETs :     Misc.  Thunderstorms  Icing  Turbulence  Mountain Waves  Volcanic Ashes






- Airport Elevation : 46 ft
- IATA code : GPA


LGRX - Araxos

CURRENT METAR :
  • 021120Z 27004KT CAVOK 35/19 Q1013

EXPIRED METARs :
  • 021050Z 27004KT CAVOK 34/19 Q1014
  • 021020Z 27004KT CAVOK 35/18 Q1014
  • 020950Z 28004KT CAVOK 34/16 Q1014
  • 020920Z 27004KT CAVOK 34/16 Q1014
  • 020850Z 00000KT CAVOK 34/16 Q1014

TAF TAF LGRX
Valid from the 02 at 12:00 until the 02 at 21:00 UTC


021100Z 0212/0221 26012KT 9999 FEW020



MET'MAP, your aeronautical weather chart ! - Copyright ORBIFLY December 2007 - Disclaimer

ORBIFLY MET'MAP TEAM :

Programming & Development : Alexandra Zaïnal
Original concept : Baudouin d'Aumeries
Technical & hardware support : Manuel Goepfert
Assistance : Marc-Olivier Méhu




SOURCES & CREDITS :

   NOAA